Time;durP1;ratioP1;P1;durP2;ratioP2;P2;SDS_P1;SDS_P2;PMS_P1;PMS_P2;Temp;Humidity;BMP_temperature;BMP_pressure;BME280_temperature;BME280_humidity;BME280_pressure;Samples;Min_cycle;Max_cycle;Signal;HPM_P1;HPM_P2
2022/06/08 00:00:15;;;;;;;6.10;1.70;;;17.00;99.90;;;;;;6160747;23;20426;-88
2022/06/08 00:02:45;;;;;;;5.40;2.40;;;16.90;99.90;;;;;;6163823;23;20442;-88
2022/06/08 00:05:12;;;;;;;6.70;1.93;;;16.80;99.90;;;;;;6157106;23;20485;-88
2022/06/08 00:07:40;;;;;;;3.90;2.10;;;16.80;99.90;;;;;;6157411;23;20402;-87
2022/06/08 00:10:08;;;;;;;4.10;2.50;;;16.80;99.90;;;;;;6156824;23;20386;-88
2022/06/08 00:12:37;;;;;;;3.30;1.90;;;16.70;99.90;;;;;;6157536;23;20754;-87
2022/06/08 00:15:05;;;;;;;4.83;2.13;;;16.80;99.90;;;;;;6156718;23;20418;-88
2022/06/08 00:17:32;;;;;;;4.00;2.17;;;16.80;99.90;;;;;;6156250;23;20415;-87
2022/06/08 00:20:02;;;;;;;3.57;2.17;;;16.80;99.90;;;;;;6156412;23;20397;-87
2022/06/08 00:22:29;;;;;;;3.73;2.00;;;16.70;99.90;;;;;;6168153;23;20419;-88
2022/06/08 00:24:57;;;;;;;5.83;2.13;;;16.70;99.90;;;;;;6175374;23;20449;-87
2022/06/08 00:27:34;;;;;;;4.00;2.13;;;16.70;99.90;;;;;;6180983;23;20430;-88
2022/06/08 00:30:06;;;;;;;4.10;2.30;;;16.80;99.90;;;;;;6175331;23;20470;-88
2022/06/08 00:32:33;;;;;;;6.03;3.00;;;16.80;99.90;;;;;;6162821;23;20395;-86
2022/06/08 00:35:04;;;;;;;4.87;2.20;;;16.80;99.90;;;;;;6158356;23;20431;-88
2022/06/08 00:37:31;;;;;;;6.03;2.10;;;16.70;99.90;;;;;;6156732;23;20433;-88
2022/06/08 00:40:04;;;;;;;4.97;2.30;;;16.80;99.90;;;;;;6156186;23;20411;-88
2022/06/08 00:42:31;;;;;;;5.07;2.30;;;16.70;99.90;;;;;;6160013;23;20399;-87
2022/06/08 00:45:05;;;;;;;8.23;2.67;;;16.70;99.90;;;;;;6158810;23;20420;-88
2022/06/08 00:47:35;;;;;;;4.37;2.30;;;16.70;99.90;;;;;;6170424;23;20837;-87
2022/06/08 00:50:06;;;;;;;4.20;2.33;;;16.80;99.90;;;;;;6168678;23;20900;-88
2022/06/08 00:52:34;;;;;;;9.10;2.80;;;16.70;99.90;;;;;;6158309;23;20751;-87
2022/06/08 00:55:05;;;;;;;4.20;2.43;;;16.70;99.90;;;;;;6157209;23;20396;-88
2022/06/08 00:57:37;;;;;;;8.00;2.00;;;16.70;99.90;;;;;;6156656;23;20557;-87
2022/06/08 01:00:10;;;;;;;4.00;2.07;;;16.70;99.90;;;;;;6157541;23;20415;-87
2022/06/08 01:02:38;;;;;;;5.40;2.60;;;16.60;99.90;;;;;;6160939;23;20396;-87
2022/06/08 01:05:25;;;;;;;3.40;1.80;;;16.60;99.90;;;;;;6170295;23;20412;-88
2022/06/08 01:07:54;;;;;;;4.93;2.00;;;16.50;99.90;;;;;;6169895;23;20568;-87
2022/06/08 01:10:24;;;;;;;5.10;2.57;;;16.60;99.90;;;;;;6160162;23;20836;-87
2022/06/08 01:12:51;;;;;;;3.70;2.30;;;16.70;99.90;;;;;;6159799;23;20438;-87
2022/06/08 01:15:24;;;;;;;3.97;2.27;;;16.80;99.90;;;;;;6161862;23;20396;-86
2022/06/08 01:17:52;;;;;;;5.47;2.73;;;16.70;99.90;;;;;;6158442;23;20519;-87
2022/06/08 01:20:19;;;;;;;6.03;2.30;;;16.70;99.90;;;;;;6154411;23;20407;-87
2022/06/08 01:22:48;;;;;;;4.93;2.30;;;16.60;99.90;;;;;;6155950;23;20943;-87
2022/06/08 01:25:16;;;;;;;4.93;2.73;;;16.50;99.90;;;;;;6156899;23;20473;-87
2022/06/08 01:27:56;;;;;;;4.30;2.10;;;16.50;99.90;;;;;;6168166;23;20439;-87
2022/06/08 01:30:26;;;;;;;4.37;2.40;;;16.50;99.90;;;;;;6160461;23;20869;-87
2022/06/08 01:33:34;;;;;;;4.53;2.47;;;16.50;99.90;;;;;;6161827;23;20415;-87
2022/06/08 01:36:18;;;;;;;4.30;2.30;;;16.50;99.90;;;;;;6089049;23;20768;-88
2022/06/08 01:38:56;;;;;;;4.70;2.70;;;16.40;99.90;;;;;;6157178;23;20467;-88
2022/06/08 01:41:43;;;;;;;4.90;2.47;;;16.30;99.90;;;;;;6156278;23;20439;-87
2022/06/08 01:44:23;;;;;;;5.03;2.70;;;16.40;99.90;;;;;;6157337;23;20489;-88
2022/06/08 01:47:01;;;;;;;5.73;2.40;;;16.30;99.90;;;;;;6156789;23;20442;-88
2022/06/08 01:49:51;;;;;;;4.50;2.50;;;16.20;99.90;;;;;;6161269;23;20494;-88
2022/06/08 01:52:30;;;;;;;5.03;2.50;;;16.30;99.90;;;;;;6171007;23;20411;-88
2022/06/08 01:55:09;;;;;;;3.47;1.97;;;16.30;99.90;;;;;;6181131;23;20659;-86
2022/06/08 01:57:59;;;;;;;4.70;2.50;;;16.10;99.90;;;;;;6160099;23;20715;-85
2022/06/08 02:00:31;;;;;;;5.40;2.33;;;16.10;99.90;;;;;;6158395;23;20426;-86
2022/06/08 02:03:10;;;;;;;3.60;2.20;;;16.10;99.90;;;;;;6158077;23;20473;-86
2022/06/08 02:05:45;;;;;;;3.77;2.20;;;16.10;99.90;;;;;;6166112;23;20404;-86
2022/06/08 02:08:20;;;;;;;3.87;2.33;;;16.00;99.90;;;;;;6165215;23;20436;-86
2022/06/08 02:10:57;;;;;;;4.97;2.60;;;16.10;99.90;;;;;;6171210;23;20402;-86
2022/06/08 02:13:28;;;;;;;4.73;2.50;;;16.10;99.90;;;;;;6160750;23;20406;-86
2022/06/08 02:16:00;;;;;;;6.17;2.50;;;16.10;99.90;;;;;;6159221;23;20443;-85
2022/06/08 02:18:31;;;;;;;4.50;2.33;;;16.10;99.90;;;;;;6163345;23;20510;-87
2022/06/08 02:21:06;;;;;;;4.27;2.40;;;16.10;99.90;;;;;;6163872;23;20473;-87
2022/06/08 02:23:42;;;;;;;4.93;2.70;;;16.10;99.90;;;;;;6161323;23;20454;-87
2022/06/08 02:26:13;;;;;;;6.60;2.70;;;16.00;99.90;;;;;;6166912;23;20398;-87
2022/06/08 02:28:44;;;;;;;5.70;2.37;;;16.00;99.90;;;;;;6164300;23;20454;-86
2022/06/08 02:31:16;;;;;;;4.83;2.80;;;16.00;99.90;;;;;;6163961;23;20778;-87
2022/06/08 02:39:40;;;;;;;5.53;2.50;;;16.10;99.90;;;;;;6140896;23;20938;-87
2022/06/08 02:42:13;;;;;;;4.83;2.47;;;16.00;99.90;;;;;;6157201;23;20448;-87
2022/06/08 02:45:00;;;;;;;4.70;2.57;;;15.80;99.90;;;;;;6161105;23;20406;-87
2022/06/08 02:47:30;;;;;;;4.63;2.60;;;15.80;99.90;;;;;;6160123;23;20509;-87
2022/06/08 02:50:00;;;;;;;4.33;3.17;;;15.80;99.90;;;;;;6197616;23;20444;-87
2022/06/08 02:52:28;;;;;;;4.90;2.93;;;15.80;99.90;;;;;;6214666;23;20361;-89
2022/06/08 02:54:56;;;;;;;7.70;2.57;;;15.70;99.90;;;;;;6194833;23;20425;-89
2022/06/08 02:57:37;;;;;;;5.20;2.67;;;15.60;99.90;;;;;;6195691;23;20419;-89
2022/06/08 03:00:08;;;;;;;7.03;2.43;;;15.70;99.90;;;;;;6178237;23;20425;-90
2022/06/08 03:02:40;;;;;;;4.50;2.30;;;15.60;99.90;;;;;;6163372;23;20497;-89
2022/06/08 03:05:10;;;;;;;5.33;2.60;;;15.70;99.90;;;;;;6161132;23;20718;-90
2022/06/08 03:07:44;;;;;;;5.23;2.70;;;15.60;99.90;;;;;;6159846;23;20400;-90
2022/06/08 03:10:15;;;;;;;7.27;3.20;;;15.50;99.90;;;;;;6160206;23;20406;-89
2022/06/08 03:12:50;;;;;;;4.60;2.60;;;15.50;99.90;;;;;;6162019;23;20414;-90
2022/06/08 03:15:21;;;;;;;4.20;2.53;;;15.50;99.90;;;;;;6162741;23;20409;-89
2022/06/08 03:17:50;;;;;;;6.37;2.80;;;15.50;99.90;;;;;;6161047;23;20407;-89
2022/06/08 03:20:21;;;;;;;5.80;2.70;;;15.50;99.90;;;;;;6160724;23;20426;-88
2022/06/08 03:22:48;;;;;;;5.33;2.83;;;15.40;99.90;;;;;;6159964;23;20483;-88
2022/06/08 03:25:16;;;;;;;6.20;2.50;;;15.40;99.90;;;;;;6170158;23;20421;-88
2022/06/08 03:27:45;;;;;;;5.60;2.20;;;15.30;99.90;;;;;;6164506;23;20413;-89
2022/06/08 03:30:13;;;;;;;5.73;2.70;;;15.30;99.90;;;;;;6162204;23;20442;-89
2022/06/08 03:32:42;;;;;;;4.97;3.03;;;15.30;99.90;;;;;;6162719;23;20493;-90
2022/06/08 03:35:10;;;;;;;4.40;2.50;;;15.40;99.90;;;;;;6160214;23;20429;-90
2022/06/08 03:37:37;;;;;;;5.03;3.00;;;15.50;99.90;;;;;;6162016;23;20527;-90
2022/06/08 03:40:06;;;;;;;6.60;2.87;;;15.50;99.90;;;;;;6165216;23;20809;-90
2022/06/08 03:42:33;;;;;;;5.10;2.60;;;15.60;99.90;;;;;;6165917;23;20428;-89
2022/06/08 03:45:02;;;;;;;5.20;2.77;;;15.70;99.90;;;;;;6177625;23;20412;-89
2022/06/08 03:47:37;;;;;;;6.60;2.87;;;15.70;99.90;;;;;;6179384;23;20438;-91
2022/06/08 03:50:09;;;;;;;7.33;2.70;;;15.70;99.90;;;;;;6171432;23;20438;-90
2022/06/08 03:52:38;;;;;;;7.00;2.40;;;15.60;99.90;;;;;;6168501;23;20432;-90
2022/06/08 03:55:08;;;;;;;4.27;2.50;;;15.60;99.90;;;;;;6165453;23;20415;-90
2022/06/08 03:57:36;;;;;;;8.37;2.70;;;15.70;99.90;;;;;;6163299;23;20408;-89
2022/06/08 04:00:06;;;;;;;6.13;2.70;;;15.70;99.90;;;;;;6163450;23;20423;-89
2022/06/08 04:02:34;;;;;;;6.37;3.37;;;15.80;99.90;;;;;;6162826;23;20437;-89
2022/06/08 04:05:01;;;;;;;6.80;2.63;;;15.80;99.90;;;;;;6166960;23;20419;-88
2022/06/08 04:07:30;;;;;;;7.30;2.90;;;15.80;99.90;;;;;;6163772;23;20413;-90
2022/06/08 04:09:57;;;;;;;8.37;2.73;;;16.00;99.90;;;;;;6163418;23;20454;-90
2022/06/08 04:12:23;;;;;;;6.40;2.40;;;16.10;99.90;;;;;;6165739;23;20375;-90
2022/06/08 04:14:51;;;;;;;7.50;2.40;;;16.10;99.90;;;;;;6174524;23;20447;-89
2022/06/08 04:17:20;;;;;;;5.20;2.57;;;16.30;99.90;;;;;;6169420;23;20393;-90
2022/06/08 04:19:48;;;;;;;8.67;2.40;;;16.40;99.90;;;;;;6163779;23;20439;-90
2022/06/08 04:22:20;;;;;;;5.10;2.80;;;16.60;99.90;;;;;;6164696;23;20446;-90
2022/06/08 04:24:48;;;;;;;6.17;2.73;;;16.60;99.90;;;;;;6162091;23;20457;-90
2022/06/08 04:27:16;;;;;;;4.53;2.33;;;16.50;99.90;;;;;;6160488;23;20449;-90
2022/06/08 04:29:43;;;;;;;6.73;2.70;;;16.60;99.90;;;;;;6171142;23;20454;-90
2022/06/08 04:32:11;;;;;;;8.70;3.17;;;16.60;99.90;;;;;;6183566;23;20414;-89
2022/06/08 04:34:42;;;;;;;5.40;2.40;;;16.50;99.90;;;;;;6179378;23;20393;-89
2022/06/08 04:37:09;;;;;;;5.57;2.43;;;16.60;99.90;;;;;;6183607;23;20390;-87
2022/06/08 04:39:36;;;;;;;8.50;2.43;;;16.60;99.90;;;;;;6183226;23;20431;-88
2022/06/08 04:42:05;;;;;;;4.70;2.17;;;16.60;99.90;;;;;;6173780;23;20472;-90
2022/06/08 04:44:32;;;;;;;5.70;2.40;;;16.60;99.90;;;;;;6180891;23;20434;-88
2022/06/08 04:46:59;;;;;;;4.63;2.10;;;16.70;99.90;;;;;;6183724;23;20469;-87
2022/06/08 04:49:26;;;;;;;6.10;2.50;;;16.80;99.90;;;;;;6183846;23;20447;-86
2022/06/08 04:51:55;;;;;;;4.97;2.30;;;16.90;99.90;;;;;;6178793;23;20400;-89
2022/06/08 04:54:22;;;;;;;5.30;2.20;;;16.90;99.90;;;;;;6170746;23;20437;-89
2022/06/08 04:56:49;;;;;;;6.40;2.40;;;16.90;99.90;;;;;;6168876;23;20403;-89
2022/06/08 04:59:16;;;;;;;5.20;2.47;;;17.00;99.90;;;;;;6171245;23;20428;-89
2022/06/08 05:01:43;;;;;;;6.23;3.10;;;16.80;99.90;;;;;;6162948;23;20965;-90
2022/06/08 05:04:10;;;;;;;6.97;2.60;;;16.70;99.90;;;;;;6176970;23;20414;-90
2022/06/08 05:06:37;;;;;;;4.97;2.40;;;16.60;99.90;;;;;;6183126;23;20376;-89
2022/06/08 05:09:06;;;;;;;5.70;2.17;;;16.60;99.90;;;;;;6168797;23;20439;-90
2022/06/08 05:11:33;;;;;;;7.07;2.60;;;16.70;99.90;;;;;;6171268;23;20393;-89
2022/06/08 05:14:00;;;;;;;5.63;2.30;;;16.80;99.90;;;;;;6173113;23;20439;-89
2022/06/08 05:16:27;;;;;;;4.27;2.10;;;16.80;99.90;;;;;;6178800;23;20451;-90
2022/06/08 05:18:54;;;;;;;8.10;2.77;;;16.90;99.90;;;;;;6179593;23;20443;-89
2022/06/08 05:21:21;;;;;;;4.00;2.33;;;17.10;99.90;;;;;;6180822;23;20418;-89
2022/06/08 05:23:50;;;;;;;5.00;2.13;;;17.10;99.90;;;;;;6180127;23;20448;-89
2022/06/08 05:26:18;;;;;;;6.43;2.57;;;17.20;99.90;;;;;;6182767;23;20406;-89
2022/06/08 05:28:45;;;;;;;4.20;1.90;;;17.20;99.90;;;;;;6169931;23;20434;-89
2022/06/08 05:31:13;;;;;;;5.53;2.40;;;17.40;99.90;;;;;;6164836;23;20893;-89
2022/06/08 05:33:41;;;;;;;6.40;2.37;;;17.30;99.90;;;;;;6166995;23;20719;-89
2022/06/08 05:36:08;;;;;;;6.43;2.40;;;17.40;99.90;;;;;;6163691;23;20505;-88
2022/06/08 05:38:39;;;;;;;6.20;2.00;;;17.30;99.90;;;;;;6164290;23;20499;-89
2022/06/08 05:41:09;;;;;;;6.27;2.27;;;17.20;99.90;;;;;;6165126;23;20486;-88
2022/06/08 05:43:38;;;;;;;4.83;2.30;;;17.30;99.90;;;;;;6167121;23;20473;-90
2022/06/08 05:46:05;;;;;;;7.00;2.67;;;17.40;99.90;;;;;;6164708;23;20370;-89
2022/06/08 05:48:51;;;;;;;6.30;2.33;;;17.50;99.90;;;;;;6170475;23;20506;-89
2022/06/08 05:51:21;;;;;;;4.90;2.50;;;17.50;99.90;;;;;;6172077;23;20387;-90
2022/06/08 05:53:48;;;;;;;5.40;2.13;;;17.60;99.90;;;;;;6163995;23;20523;-89
2022/06/08 05:56:21;;;;;;;7.47;2.53;;;17.70;99.90;;;;;;6162451;23;20427;-89
2022/06/08 05:58:51;;;;;;;6.83;2.30;;;17.80;99.90;;;;;;6164932;23;20745;-90
2022/06/08 06:01:18;;;;;;;6.23;2.30;;;17.90;99.90;;;;;;6168506;23;20407;-89
2022/06/08 06:03:46;;;;;;;9.73;2.20;;;18.00;99.90;;;;;;6167322;23;20447;-90
2022/06/08 06:09:04;;;;;;;4.20;2.00;;;18.00;99.90;;;;;;6172919;23;20424;-89
2022/06/08 06:11:55;;;;;;;5.63;2.10;;;18.10;99.90;;;;;;6167281;23;20391;-88
2022/06/08 06:14:24;;;;;;;8.37;3.03;;;18.10;99.90;;;;;;6169622;23;20396;-89
2022/06/08 06:16:55;;;;;;;4.97;2.20;;;18.20;99.90;;;;;;6177437;23;20407;-91
2022/06/08 06:19:29;;;;;;;6.83;2.53;;;18.20;99.90;;;;;;6168925;23;20459;-90
2022/06/08 06:21:59;;;;;;;15.60;2.37;;;18.30;99.90;;;;;;6171894;23;20442;-90
2022/06/08 06:24:27;;;;;;;8.00;2.80;;;18.40;99.90;;;;;;6177877;23;20425;-90
2022/06/08 06:26:57;;;;;;;5.87;2.20;;;18.50;99.90;;;;;;6167833;23;20394;-90
2022/06/08 06:29:30;;;;;;;6.07;2.33;;;18.50;99.90;;;;;;6170725;23;20435;-88
2022/06/08 06:32:02;;;;;;;6.17;2.33;;;18.50;99.90;;;;;;6184405;23;20430;-87
2022/06/08 06:34:33;;;;;;;5.63;1.90;;;18.60;99.90;;;;;;6184675;23;20399;-88
2022/06/08 06:37:00;;;;;;;5.30;2.10;;;18.60;99.90;;;;;;6177658;23;20373;-88
2022/06/08 06:39:28;;;;;;;10.47;2.17;;;18.70;99.90;;;;;;6173167;23;20450;-89
2022/06/08 06:42:07;;;;;;;9.33;2.20;;;18.70;99.90;;;;;;6166270;23;20451;-89
2022/06/08 06:44:39;;;;;;;5.13;2.10;;;18.70;99.90;;;;;;6167259;23;20386;-89
2022/06/08 06:47:06;;;;;;;5.53;2.30;;;18.80;99.90;;;;;;6170849;23;20419;-88
2022/06/08 06:49:33;;;;;;;8.53;2.07;;;18.90;99.90;;;;;;6181455;23;20418;-89
2022/06/08 06:52:04;;;;;;;4.23;1.97;;;18.80;99.90;;;;;;6176440;23;20400;-89
2022/06/08 06:54:36;;;;;;;4.50;1.70;;;18.90;99.90;;;;;;6183623;23;20391;-87
2022/06/08 06:57:07;;;;;;;7.97;2.10;;;18.90;99.90;;;;;;6183009;23;20392;-89
2022/06/08 06:59:40;;;;;;;6.00;2.10;;;19.00;99.90;;;;;;6175207;23;20446;-90
2022/06/08 07:02:19;;;;;;;6.17;2.00;;;18.90;99.90;;;;;;6172315;23;20439;-90
2022/06/08 07:04:51;;;;;;;5.53;1.97;;;18.90;99.90;;;;;;6178472;23;20498;-89
2022/06/08 07:07:19;;;;;;;5.13;1.70;;;19.00;99.90;;;;;;6180209;23;20403;-89
2022/06/08 07:09:55;;;;;;;5.60;2.10;;;18.90;99.90;;;;;;6180093;23;20451;-89
2022/06/08 07:12:27;;;;;;;14.50;2.80;;;19.10;99.90;;;;;;6170984;23;20418;-90
2022/06/08 07:14:55;;;;;;;7.43;3.00;;;19.00;99.90;;;;;;6169932;23;20430;-90
2022/06/08 07:17:22;;;;;;;6.60;2.23;;;19.10;99.90;;;;;;6175242;23;20399;-90
2022/06/08 07:19:52;;;;;;;6.33;2.03;;;19.10;99.90;;;;;;6183755;23;20519;-87
2022/06/08 07:22:22;;;;;;;8.10;2.30;;;19.10;99.90;;;;;;6178474;23;20443;-89
2022/06/08 07:24:52;;;;;;;4.50;2.03;;;19.00;99.90;;;;;;6178262;23;20403;-88
2022/06/08 07:27:19;;;;;;;4.10;1.90;;;19.00;99.90;;;;;;6181026;23;20404;-89
2022/06/08 07:29:46;;;;;;;6.50;2.17;;;19.00;99.90;;;;;;6165646;23;20443;-88
2022/06/08 07:32:15;;;;;;;6.67;2.70;;;18.90;99.90;;;;;;6167539;23;20905;-90
2022/06/08 07:34:50;;;;;;;6.10;2.27;;;18.90;99.90;;;;;;6172190;23;20423;-90
2022/06/08 07:37:19;;;;;;;5.43;2.00;;;18.90;99.90;;;;;;6167877;23;20913;-90
2022/06/08 07:39:47;;;;;;;5.20;1.90;;;18.90;99.90;;;;;;6170354;23;20430;-91
2022/06/08 07:42:16;;;;;;;5.77;2.00;;;18.90;99.90;;;;;;6175187;23;20455;-90
2022/06/08 07:44:47;;;;;;;6.70;2.57;;;18.90;99.90;;;;;;6179321;23;20426;-89
2022/06/08 07:47:20;;;;;;;5.87;2.40;;;19.00;99.90;;;;;;6179555;23;20792;-88
2022/06/08 07:49:51;;;;;;;6.10;2.73;;;19.20;99.90;;;;;;6178445;23;20484;-89
2022/06/08 07:52:21;;;;;;;6.23;2.30;;;19.20;99.90;;;;;;6178134;23;20395;-89
2022/06/08 07:54:49;;;;;;;8.00;2.37;;;19.30;99.90;;;;;;6168475;23;20407;-89
2022/06/08 07:57:20;;;;;;;6.30;1.90;;;19.30;99.90;;;;;;6165984;23;20420;-89
2022/06/08 07:59:49;;;;;;;5.23;1.80;;;19.40;99.90;;;;;;6166608;23;20424;-88
2022/06/08 08:02:19;;;;;;;5.63;2.53;;;19.50;99.90;;;;;;6164433;23;20423;-88
2022/06/08 08:04:49;;;;;;;7.53;1.93;;;19.50;99.90;;;;;;6165966;23;20407;-90
2022/06/08 08:07:17;;;;;;;7.93;2.43;;;19.60;99.90;;;;;;6178294;23;20376;-88
2022/06/08 08:09:48;;;;;;;6.03;2.00;;;19.70;99.90;;;;;;6183467;23;20439;-89
2022/06/08 08:12:15;;;;;;;6.13;2.07;;;19.70;99.90;;;;;;6177394;23;20367;-88
2022/06/08 08:14:43;;;;;;;6.40;2.10;;;19.70;99.90;;;;;;6172870;23;20392;-88
2022/06/08 08:17:15;;;;;;;6.20;2.23;;;19.80;99.90;;;;;;6173068;23;20438;-89
2022/06/08 08:19:44;;;;;;;5.50;2.33;;;19.80;99.90;;;;;;6182902;23;20447;-90
2022/06/08 08:22:14;;;;;;;4.63;1.63;;;19.80;99.90;;;;;;6173894;23;20879;-89
2022/06/08 08:24:41;;;;;;;4.20;2.13;;;20.00;99.90;;;;;;6163332;23;20902;-89
2022/06/08 08:27:14;;;;;;;5.23;2.20;;;20.00;99.90;;;;;;6161822;23;20458;-88
2022/06/08 08:29:42;;;;;;;4.57;1.87;;;20.10;99.90;;;;;;6160569;23;20522;-89
2022/06/08 08:32:10;;;;;;;5.10;1.90;;;20.20;99.90;;;;;;6162622;23;20879;-89
2022/06/08 08:34:38;;;;;;;5.03;1.80;;;20.20;99.90;;;;;;6162514;23;20403;-88
2022/06/08 08:37:09;;;;;;;6.23;2.37;;;20.30;99.90;;;;;;6159980;23;20435;-90
2022/06/08 08:39:37;;;;;;;4.27;1.87;;;20.50;99.90;;;;;;6162063;23;20439;-89
2022/06/08 08:42:21;;;;;;;6.57;2.40;;;20.60;99.90;;;;;;6165228;23;20486;-89
2022/06/08 08:44:51;;;;;;;7.00;2.50;;;20.50;99.90;;;;;;6166363;23;20371;-89
2022/06/08 08:47:29;;;;;;;5.97;1.53;;;20.70;99.90;;;;;;6163909;23;20415;-88
2022/06/08 08:49:58;;;;;;;7.70;2.53;;;20.70;99.90;;;;;;6177040;23;20473;-88
2022/06/08 08:52:39;;;;;;;4.10;2.30;;;20.70;99.90;;;;;;6204431;23;20473;-89
2022/06/08 08:55:17;;;;;;;5.30;2.00;;;20.70;99.90;;;;;;6190742;23;20426;-88
2022/06/08 08:57:54;;;;;;;5.93;2.20;;;20.80;99.90;;;;;;6196566;23;20467;-89
2022/06/08 09:00:37;;;;;;;7.27;2.03;;;20.90;99.90;;;;;;6174339;23;20443;-88
2022/06/08 09:03:18;;;;;;;9.73;2.23;;;21.00;99.90;;;;;;6163021;23;20436;-88
2022/06/08 09:05:48;;;;;;;4.20;1.80;;;21.10;99.90;;;;;;6161782;23;20400;-88
2022/06/08 09:08:20;;;;;;;5.90;2.30;;;21.30;99.90;;;;;;6162730;23;20431;-87
2022/06/08 09:10:48;;;;;;;5.50;2.40;;;21.30;99.90;;;;;;6158523;23;20416;-88
2022/06/08 09:13:23;;;;;;;4.50;2.03;;;21.30;99.90;;;;;;6157833;23;20446;-88
2022/06/08 09:15:54;;;;;;;5.20;2.07;;;21.30;99.90;;;;;;6159099;23;20396;-88
2022/06/08 09:18:35;;;;;;;9.23;2.30;;;21.30;99.90;;;;;;6158053;23;20428;-88
2022/06/08 09:21:30;;;;;;;6.27;2.30;;;21.40;99.90;;;;;;6157719;23;20443;-88
2022/06/08 09:24:01;;;;;;;4.73;1.70;;;21.40;99.90;;;;;;6162103;23;20459;-88
2022/06/08 09:26:32;;;;;;;6.63;2.03;;;21.30;99.90;;;;;;6163564;23;20412;-89
2022/06/08 09:29:00;;;;;;;6.00;2.87;;;21.20;99.90;;;;;;6161371;23;20438;-87
2022/06/08 09:31:31;;;;;;;4.73;2.20;;;21.40;99.90;;;;;;6170275;23;20412;-89
2022/06/08 09:34:15;;;;;;;4.00;2.20;;;21.40;99.90;;;;;;6160615;23;20408;-88
2022/06/08 09:36:42;;;;;;;6.07;2.20;;;21.50;99.60;;;;;;6158303;23;20403;-87
2022/06/08 09:39:13;;;;;;;10.33;1.83;;;21.60;97.40;;;;;;6158118;23;20439;-88
2022/06/08 09:41:47;;;;;;;5.67;2.37;;;21.60;97.50;;;;;;6160696;23;20452;-89
2022/06/08 09:44:25;;;;;;;6.70;2.90;;;21.60;97.60;;;;;;6158847;23;20768;-88
2022/06/08 09:53:12;;;;;;;6.37;2.07;;;21.90;95.50;;;;;;6070514;23;20398;-87
2022/06/08 09:55:57;;;;;;;6.93;1.70;;;22.10;95.10;;;;;;6172482;23;20436;-88
2022/06/08 09:58:43;;;;;;;5.27;1.70;;;22.20;95.20;;;;;;6173856;23;20396;-88
2022/06/08 10:01:19;;;;;;;3.90;1.60;;;22.40;94.30;;;;;;6163292;23;20515;-88
2022/06/08 10:04:22;;;;;;;5.70;1.60;;;22.50;93.60;;;;;;6159940;23;20473;-88
2022/06/08 10:06:58;;;;;;;6.27;1.70;;;22.70;92.60;;;;;;6108849;23;20433;-87
2022/06/08 10:09:37;;;;;;;4.40;1.37;;;22.70;92.60;;;;;;6162447;23;20498;-88
2022/06/08 10:12:15;;;;;;;4.80;1.90;;;22.80;91.70;;;;;;6161853;23;20502;-88
2022/06/08 10:14:49;;;;;;;5.30;2.10;;;22.80;92.10;;;;;;6162677;23;20394;-88
2022/06/08 10:17:27;;;;;;;5.00;1.90;;;22.90;91.70;;;;;;6161063;23;20403;-88
2022/06/08 10:20:01;;;;;;;7.57;2.73;;;23.10;91.70;;;;;;6163116;23;20938;-88
2022/06/08 10:22:35;;;;;;;5.50;2.10;;;23.00;91.20;;;;;;6161970;23;20446;-88
2022/06/08 10:25:07;;;;;;;4.70;1.87;;;22.90;91.20;;;;;;6171892;23;20435;-88
2022/06/08 10:27:42;;;;;;;21.30;10.03;;;22.90;90.90;;;;;;6164516;23;20855;-88
2022/06/08 10:30:17;;;;;;;4.00;1.67;;;22.80;91.10;;;;;;6162092;23;20434;-88
2022/06/08 10:32:47;;;;;;;5.43;2.00;;;22.80;91.00;;;;;;6160813;23;20437;-88
2022/06/08 10:35:27;;;;;;;4.83;1.70;;;22.90;91.40;;;;;;6161659;23;20413;-88
2022/06/08 10:37:55;;;;;;;6.03;1.80;;;23.00;90.50;;;;;;6167262;23;20391;-88
2022/06/08 10:40:25;;;;;;;4.77;1.73;;;23.10;90.50;;;;;;6159854;23;20419;-89
2022/06/08 10:42:54;;;;;;;6.70;2.80;;;23.30;89.30;;;;;;6163615;23;20408;-89
2022/06/08 10:45:47;;;;;;;4.80;1.60;;;23.30;89.90;;;;;;6168368;23;20561;-88
2022/06/08 10:48:47;;;;;;;4.70;1.50;;;23.40;85.80;;;;;;6140158;23;20796;-88
2022/06/08 10:51:39;;;;;;;5.40;2.13;;;23.50;85.30;;;;;;6168471;23;20443;-88
2022/06/08 10:54:58;;;;;;;3.67;1.50;;;23.40;87.10;;;;;;6170839;23;20470;-88
2022/06/08 10:57:39;;;;;;;5.37;1.87;;;23.50;86.30;;;;;;6165590;23;20886;-88
2022/06/08 11:00:28;;;;;;;5.57;1.67;;;23.60;84.20;;;;;;6163927;23;20435;-88
2022/06/08 11:03:02;;;;;;;4.03;1.77;;;23.70;79.80;;;;;;6163044;23;20377;-88
2022/06/08 11:05:35;;;;;;;4.40;1.27;;;23.80;76.10;;;;;;6163665;23;20396;-88
2022/06/08 11:08:24;;;;;;;4.50;1.50;;;23.70;75.10;;;;;;6161532;23;20423;-87
2022/06/08 11:11:04;;;;;;;8.07;2.10;;;23.90;79.10;;;;;;6161850;23;20419;-87
2022/06/08 11:14:02;;;;;;;4.80;1.90;;;24.00;81.40;;;;;;6162118;23;20404;-88
2022/06/08 11:16:50;;;;;;;6.10;1.83;;;24.00;81.00;;;;;;6165100;23;20380;-88
2022/06/08 11:19:28;;;;;;;5.07;1.50;;;23.90;79.50;;;;;;6170162;23;20443;-88
2022/06/08 11:22:05;;;;;;;4.50;2.07;;;23.80;78.20;;;;;;6162621;23;20454;-89
2022/06/08 11:24:42;;;;;;;4.43;1.80;;;24.00;76.00;;;;;;6175873;23;20597;-88
2022/06/08 11:27:32;;;;;;;4.33;1.50;;;24.20;72.00;;;;;;6172030;23;20450;-88
2022/06/08 11:30:04;;;;;;;5.60;2.00;;;24.30;74.30;;;;;;6161042;23;20471;-88
2022/06/08 11:33:06;;;;;;;5.00;1.57;;;24.20;74.10;;;;;;6161137;23;20728;-88
2022/06/08 11:36:13;;;;;;;6.00;1.70;;;24.40;72.90;;;;;;6132511;23;20490;-88
2022/06/08 11:38:57;;;;;;;5.30;1.73;;;24.50;73.50;;;;;;6168654;23;20395;-88
2022/06/08 11:41:33;;;;;;;4.07;1.70;;;24.30;72.70;;;;;;6163445;23;20483;-88
2022/06/08 11:44:04;;;;;;;5.23;2.70;;;24.30;72.60;;;;;;6161154;23;20512;-88
2022/06/08 11:46:34;;;;;;;4.27;1.63;;;24.20;73.10;;;;;;6171874;23;20434;-88
2022/06/08 11:49:06;;;;;;;4.37;2.20;;;24.30;73.60;;;;;;6165293;23;20434;-88
2022/06/08 11:51:37;;;;;;;5.03;1.37;;;24.30;72.40;;;;;;6160423;23;20400;-88
2022/06/08 11:54:18;;;;;;;5.10;1.50;;;24.30;72.60;;;;;;6164505;23;20395;-88
2022/06/08 11:56:55;;;;;;;3.73;1.30;;;24.30;73.20;;;;;;6175347;23;20412;-89
2022/06/08 11:59:26;;;;;;;7.83;1.60;;;24.60;72.40;;;;;;6165370;23;20527;-89
2022/06/08 12:01:55;;;;;;;6.83;2.30;;;24.80;71.40;;;;;;6161951;23;20466;-88
2022/06/08 12:04:29;;;;;;;4.40;2.03;;;24.60;70.50;;;;;;6161153;23;20546;-88
2022/06/08 12:06:57;;;;;;;5.57;1.83;;;24.50;70.90;;;;;;6161071;23;20431;-87
2022/06/08 12:09:28;;;;;;;5.47;1.87;;;24.60;70.40;;;;;;6168615;23;20435;-88
2022/06/08 12:11:59;;;;;;;5.37;2.03;;;24.70;69.00;;;;;;6169861;23;20812;-88
2022/06/08 12:14:28;;;;;;;8.17;2.57;;;24.80;68.80;;;;;;6169719;23;20404;-89
2022/06/08 12:16:59;;;;;;;5.00;1.60;;;24.90;68.30;;;;;;6171364;23;20415;-90
2022/06/08 12:19:30;;;;;;;4.70;1.70;;;24.60;67.50;;;;;;6175015;23;20435;-91
2022/06/08 12:22:17;;;;;;;5.57;1.83;;;24.70;67.60;;;;;;6164425;23;20750;-89
2022/06/08 12:24:45;;;;;;;6.50;1.80;;;24.90;67.50;;;;;;6164995;23;20435;-90
2022/06/08 12:27:30;;;;;;;4.20;1.57;;;25.10;67.40;;;;;;6162431;23;20490;-90
2022/06/08 12:29:59;;;;;;;17.03;1.83;;;25.20;66.30;;;;;;6161490;23;20427;-91
2022/06/08 12:32:34;;;;;;;4.90;1.60;;;25.00;66.10;;;;;;6161222;23;20454;-90
2022/06/08 12:35:28;;;;;;;8.30;1.77;;;25.00;65.90;;;;;;6161311;23;20471;-90
2022/06/08 12:38:24;;;;;;;3.23;1.50;;;25.10;66.20;;;;;;6140081;23;20486;-90
2022/06/08 12:41:10;;;;;;;6.03;1.57;;;25.20;64.00;;;;;;6160498;23;20933;-90
2022/06/08 12:43:47;;;;;;;4.70;1.57;;;25.20;63.70;;;;;;6163329;23;20752;-90
2022/06/08 12:46:31;;;;;;;5.07;1.90;;;25.10;65.20;;;;;;6160929;23;20411;-89
2022/06/08 12:49:01;;;;;;;6.43;1.90;;;24.90;66.30;;;;;;6163995;23;20403;-88
2022/06/08 12:51:41;;;;;;;6.23;2.03;;;25.00;65.50;;;;;;6162474;23;20800;-90
2022/06/08 12:54:15;;;;;;;8.43;2.07;;;25.10;66.30;;;;;;6162946;23;20474;-90
2022/06/08 12:56:47;;;;;;;4.60;1.90;;;25.10;65.20;;;;;;6171333;23;20416;-91
2022/06/08 12:59:15;;;;;;;4.73;1.60;;;25.00;65.10;;;;;;6169253;23;20450;-90
2022/06/08 13:01:46;;;;;;;5.23;1.80;;;25.10;65.00;;;;;;6160988;23;20487;-90
2022/06/08 13:04:15;;;;;;;6.80;1.60;;;25.30;65.10;;;;;;6162569;23;20431;-90
2022/06/08 13:06:44;;;;;;;7.87;1.63;;;25.40;64.50;;;;;;6170310;23;20392;-89
2022/06/08 13:09:22;;;;;;;4.23;1.80;;;25.50;63.90;;;;;;6166284;23;20506;-90
2022/06/08 13:11:56;;;;;;;4.10;1.53;;;25.50;63.60;;;;;;6160292;23;20372;-90
2022/06/08 13:14:26;;;;;;;4.10;1.53;;;25.40;62.70;;;;;;6158583;23;20418;-89
2022/06/08 13:16:53;;;;;;;6.10;1.73;;;25.40;62.20;;;;;;6160364;23;20383;-89
2022/06/08 13:19:20;;;;;;;6.00;2.00;;;25.30;62.80;;;;;;6162185;23;20464;-89
2022/06/08 13:21:49;;;;;;;11.30;8.80;;;25.40;62.90;;;;;;6159602;23;20431;-89
2022/06/08 13:24:18;;;;;;;4.03;1.60;;;25.50;63.70;;;;;;6160086;23;20478;-90
2022/06/08 13:26:47;;;;;;;5.67;1.67;;;25.50;64.00;;;;;;6159373;23;20434;-90
2022/06/08 13:29:16;;;;;;;5.97;1.63;;;25.60;63.60;;;;;;6159359;23;20463;-90